MV Hermann Scan — V2CM8 — position and weather

sailwx.info

Track history (hours):
 
Tides and Currents Weather Stations Pressure Air Temp Water Temp Dewpoint Dewpoint Depression Visibility Wind Speed Wind Dir Waves Ship Positions

MV Hermann Scan

Last reported at 2017-Sep-21 11:50 UTC. Time now 2017-Sep-22 20:50 UTC.
Position N 09°13' W 013°49'.

Length 118 m; draft 7.5 m.

Type: Cargo ship. MMSI: 305046000.

Date/timePositionNaut miles runAvg speedWind from/ knotsBaromVisibWave heightAir tempDewpointWater temp
2017-Sep-21 11:50N 09°13' W 013°49'513.6
2017-Sep-21 11:30N 09°17' W 013°47'713.1
2017-Sep-21 11:00N 09°23' W 013°45'  
2017-Sep-17 17:23N 23°57' W 016°18'612.7
2017-Sep-17 16:55N 24°03' W 016°15'4412.5
2017-Sep-17 13:24N 24°41' W 015°52'612.5
2017-Sep-17 12:56N 24°46' W 015°49'712.2
2017-Sep-17 12:22N 24°53' W 015°46'512.3
2017-Sep-17 12:00N 24°57' W 015°43'812.5
2017-Sep-17 11:21N 25°04' W 015°39'412.5
2017-Sep-17 11:00N 25°08' W 015°36'712.4
2017-Sep-17 10:26N 25°14' W 015°33'612.5
2017-Sep-17 09:58N 25°19' W 015°30'612.6
2017-Sep-17 09:29N 25°24' W 015°27'812.5
2017-Sep-17 08:52N 25°31' W 015°23'612.7
2017-Sep-17 08:24N 25°36' W 015°19'612.6
2017-Sep-17 07:57N 25°41' W 015°16'712.7
2017-Sep-17 07:26N 25°47' W 015°13'2113.2
2017-Sep-17 05:51N 26°05' W 015°02'1413.4
2017-Sep-17 04:47N 26°18' W 014°54'413.3
2017-Sep-17 04:30N 26°21' W 014°52'713.3
2017-Sep-17 03:59N 26°26' W 014°47'613.3
2017-Sep-17 03:30N 26°32' W 014°43'812.9
2017-Sep-17 02:54N 26°38' W 014°38'612.9
2017-Sep-17 02:27N 26°42' W 014°34'2612.4
2017-Sep-17 00:23N 27°02' W 014°16'512.4
2017-Sep-17 00:00N 27°06' W 014°13'612.4
2017-Sep-16 23:30N 27°11' W 014°08'612.7
2017-Sep-16 23:00N 27°16' W 014°03'712.6
2017-Sep-16 22:28N 27°21' W 013°59'612.3
2017-Sep-16 21:57N 27°26' W 013°54'612.6
2017-Sep-16 21:30N 27°30' W 013°50'612.8
2017-Sep-16 21:00N 27°35' W 013°45'713.1
2017-Sep-16 20:30N 27°40' W 013°41'612.9
2017-Sep-16 20:00N 27°45' W 013°36'712.9
2017-Sep-16 19:30N 27°50' W 013°31'612.8
2017-Sep-16 19:00N 27°55' W 013°26'612.6
2017-Sep-16 18:30N 27°59' W 013°22'612.7
2017-Sep-16 18:00N 28°04' W 013°17'612.9
2017-Sep-16 17:30N 28°09' W 013°13'612.8
2017-Sep-16 17:00N 28°14' W 013°08'612.6
2017-Sep-16 16:30N 28°19' W 013°03'712.8
2017-Sep-16 15:59N 28°24' W 012°59'612.9
2017-Sep-16 15:30N 28°29' W 012°54'613.1
2017-Sep-16 15:00N 28°34' W 012°49'713.3
2017-Sep-16 14:30N 28°39' W 012°44'713.3
2017-Sep-16 14:00N 28°44' W 012°39'613.1
2017-Sep-16 13:30N 28°49' W 012°35'713.0
2017-Sep-16 13:00N 28°54' W 012°30'713.1
2017-Sep-16 12:30N 28°59' W 012°25'713.1
2017-Sep-16 12:00N 29°04' W 012°20'612.8
2017-Sep-16 11:30N 29°09' W 012°15'612.7
2017-Sep-16 11:00N 29°14' W 012°11'612.5
2017-Sep-16 10:30N 29°18' W 012°06'612.3
2017-Sep-16 10:00N 29°23' W 012°02'612.2
2017-Sep-16 09:30N 29°28' W 011°57'612.3
2017-Sep-16 09:00N 29°33' W 011°53'612.3
2017-Sep-16 08:30N 29°37' W 011°48'612.4
2017-Sep-16 08:00N 29°42' W 011°44'612.3
2017-Sep-16 07:30N 29°47' W 011°39'612.2
2017-Sep-16 07:00N 29°51' W 011°34'612.3
2017-Sep-16 06:30N 29°55' W 011°29'612.2
2017-Sep-16 06:00N 29°60' W 011°24'612.2
2017-Sep-16 05:30N 30°04' W 011°19'611.7
2017-Sep-16 05:00N 30°09' W 011°15'612.4
2017-Sep-16 04:30N 30°14' W 011°11'612.8
2017-Sep-16 04:00N 30°20' W 011°08'612.3
2017-Sep-16 03:30N 30°25' W 011°04'612.1
2017-Sep-16 02:59N 30°30' W 011°01'612.4
2017-Sep-16 02:30N 30°36' W 010°57'612.6
2017-Sep-16 02:00N 30°41' W 010°54'612.6
2017-Sep-16 01:30N 30°46' W 010°50'612.8
2017-Sep-16 01:00N 30°52' W 010°46'612.9
2017-Sep-16 00:30N 30°57' W 010°42'612.5
2017-Sep-16 00:00N 31°03' W 010°38'612.5
2017-Sep-15 23:30N 31°08' W 010°35'612.9
2017-Sep-15 23:00N 31°14' W 010°31'712.9
2017-Sep-15 22:30N 31°20' W 010°27'712.8
2017-Sep-15 21:58N 31°26' W 010°23'612.8
2017-Sep-15 21:30N 31°31' W 010°20'612.6
2017-Sep-15 21:00N 31°36' W 010°16'712.7
2017-Sep-15 20:28N 31°42' W 010°12'612.4
2017-Sep-15 20:00N 31°47' W 010°09'912.5
2017-Sep-15 19:19N 31°54' W 010°04'513.2
2017-Sep-15 18:55N 31°59' W 010°01'3913.1
2017-Sep-15 15:56N 32°32' W 009°36'612.8
2017-Sep-15 15:29N 32°36' W 009°32'14912.7
2017-Sep-15 03:43N 34°27' W 007°33'2312.1
2017-Sep-15 01:51N 34°44' W 007°14'411.8
2017-Sep-15 01:30N 34°47' W 007°10'712.3
2017-Sep-15 00:56N 34°52' W 007°04'613.1
2017-Sep-15 00:28N 34°56' W 006°59'712.8
2017-Sep-14 23:58N 35°01' W 006°53'712.8
2017-Sep-14 23:27N 35°05' W 006°48'713.0
2017-Sep-14 22:55N 35°11' W 006°43'612.9
2017-Sep-14 22:27N 35°15' W 006°38'613.1
2017-Sep-14 21:59N 35°19' W 006°32'1213.2
2017-Sep-14 21:03N 35°28' W 006°22'113.0
2017-Sep-14 21:00N 35°29' W 006°21'713.8
2017-Sep-14 20:30N 35°34' W 006°15'3413.4
2017-Sep-14 17:56N 35°57' W 005°44'1710.8
2017-Sep-14 16:23N 36°01' W 005°24'411.1
2017-Sep-14 16:00N 36°05' W 005°23'3 5.1
2017-Sep-14 15:25N 36°08' W 005°22'0 0.0
2017-Sep-14 05:58N 36°09' W 005°22'0 0.1
2017-Sep-14 04:21N 36°08' W 005°22'3 5.5
2017-Sep-14 03:53N 36°06' W 005°22'512.2
2017-Sep-14 03:30N 36°06' W 005°16'12911.4
2017-Sep-13 16:13N 36°23' W 002°37'312.0
2017-Sep-13 15:59N 36°23' W 002°34'611.9
2017-Sep-13 15:30N 36°24' W 002°27'611.8
2017-Sep-13 15:00N 36°25' W 002°20'7612.0
2017-Sep-13 08:41N 36°38' W 000°46'313.0
2017-Sep-13 08:28N 36°39' W 000°43'2312.8
2017-Sep-13 06:39N 36°43' W 000°15'612.4
2017-Sep-13 06:10N 36°45' W 000°07'1212.5
2017-Sep-13 05:12N 36°47' E 000°07'212.6
2017-Sep-13 05:00N 36°47' E 000°11'3712.7
2017-Sep-13 02:03N 36°54' E 000°56'112.2
2017-Sep-13 01:58N 36°55' E 000°58'1912.3
2017-Sep-13 00:22N 36°59' E 001°22'513.0
2017-Sep-13 00:00N 36°59' E 001°28'4112.5
2017-Sep-12 20:41N 37°06' E 002°19'211.8
2017-Sep-12 20:30N 37°06' E 002°21'1412.0
2017-Sep-12 19:18N 37°10' E 002°39'3312.0
2017-Sep-12 16:34N 37°16' E 003°19'111.7
2017-Sep-12 16:29N 37°16' E 003°21'  
Track history (hours):
 
Tides and Currents Weather Stations Pressure Air Temp Water Temp Dewpoint Dewpoint Depression Visibility Wind Speed Wind Dir Waves Ship Positions

MV Hermann Scan

Last reported at 2017-Sep-21 11:50 UTC. Time now 2017-Sep-22 20:50 UTC.
Position N 09°13' W 013°49'.

Length 118 m; draft 7.5 m.

Type: Cargo ship. MMSI: 305046000.

Date/timePositionNaut miles runAvg speedWind from/ knotsBaromVisibWave heightAir tempDewpointWater temp
2017-Sep-21 11:50N 09°13' W 013°49'513.6
2017-Sep-21 11:30N 09°17' W 013°47'713.1
2017-Sep-21 11:00N 09°23' W 013°45'  
2017-Sep-17 17:23N 23°57' W 016°18'612.7
2017-Sep-17 16:55N 24°03' W 016°15'4412.5
2017-Sep-17 13:24N 24°41' W 015°52'612.5
2017-Sep-17 12:56N 24°46' W 015°49'712.2
2017-Sep-17 12:22N 24°53' W 015°46'512.3
2017-Sep-17 12:00N 24°57' W 015°43'812.5
2017-Sep-17 11:21N 25°04' W 015°39'412.5
2017-Sep-17 11:00N 25°08' W 015°36'712.4
2017-Sep-17 10:26N 25°14' W 015°33'612.5
2017-Sep-17 09:58N 25°19' W 015°30'612.6
2017-Sep-17 09:29N 25°24' W 015°27'812.5
2017-Sep-17 08:52N 25°31' W 015°23'612.7
2017-Sep-17 08:24N 25°36' W 015°19'612.6
2017-Sep-17 07:57N 25°41' W 015°16'712.7
2017-Sep-17 07:26N 25°47' W 015°13'2113.2
2017-Sep-17 05:51N 26°05' W 015°02'1413.4
2017-Sep-17 04:47N 26°18' W 014°54'413.3
2017-Sep-17 04:30N 26°21' W 014°52'713.3
2017-Sep-17 03:59N 26°26' W 014°47'613.3
2017-Sep-17 03:30N 26°32' W 014°43'812.9
2017-Sep-17 02:54N 26°38' W 014°38'612.9
2017-Sep-17 02:27N 26°42' W 014°34'2612.4
2017-Sep-17 00:23N 27°02' W 014°16'512.4
2017-Sep-17 00:00N 27°06' W 014°13'612.4
2017-Sep-16 23:30N 27°11' W 014°08'612.7
2017-Sep-16 23:00N 27°16' W 014°03'712.6
2017-Sep-16 22:28N 27°21' W 013°59'612.3
2017-Sep-16 21:57N 27°26' W 013°54'612.6
2017-Sep-16 21:30N 27°30' W 013°50'612.8
2017-Sep-16 21:00N 27°35' W 013°45'713.1
2017-Sep-16 20:30N 27°40' W 013°41'612.9
2017-Sep-16 20:00N 27°45' W 013°36'712.9
2017-Sep-16 19:30N 27°50' W 013°31'612.8
2017-Sep-16 19:00N 27°55' W 013°26'612.6
2017-Sep-16 18:30N 27°59' W 013°22'612.7
2017-Sep-16 18:00N 28°04' W 013°17'612.9
2017-Sep-16 17:30N 28°09' W 013°13'612.8
2017-Sep-16 17:00N 28°14' W 013°08'612.6
2017-Sep-16 16:30N 28°19' W 013°03'712.8
2017-Sep-16 15:59N 28°24' W 012°59'612.9
2017-Sep-16 15:30N 28°29' W 012°54'613.1
2017-Sep-16 15:00N 28°34' W 012°49'713.3
2017-Sep-16 14:30N 28°39' W 012°44'713.3
2017-Sep-16 14:00N 28°44' W 012°39'613.1
2017-Sep-16 13:30N 28°49' W 012°35'713.0
2017-Sep-16 13:00N 28°54' W 012°30'713.1
2017-Sep-16 12:30N 28°59' W 012°25'713.1
2017-Sep-16 12:00N 29°04' W 012°20'612.8
2017-Sep-16 11:30N 29°09' W 012°15'612.7
2017-Sep-16 11:00N 29°14' W 012°11'612.5
2017-Sep-16 10:30N 29°18' W 012°06'612.3
2017-Sep-16 10:00N 29°23' W 012°02'612.2
2017-Sep-16 09:30N 29°28' W 011°57'612.3
2017-Sep-16 09:00N 29°33' W 011°53'612.3
2017-Sep-16 08:30N 29°37' W 011°48'612.4
2017-Sep-16 08:00N 29°42' W 011°44'612.3
2017-Sep-16 07:30N 29°47' W 011°39'612.2
2017-Sep-16 07:00N 29°51' W 011°34'612.3
2017-Sep-16 06:30N 29°55' W 011°29'612.2
2017-Sep-16 06:00N 29°60' W 011°24'612.2
2017-Sep-16 05:30N 30°04' W 011°19'611.7
2017-Sep-16 05:00N 30°09' W 011°15'612.4
2017-Sep-16 04:30N 30°14' W 011°11'612.8
2017-Sep-16 04:00N 30°20' W 011°08'612.3
2017-Sep-16 03:30N 30°25' W 011°04'612.1
2017-Sep-16 02:59N 30°30' W 011°01'612.4
2017-Sep-16 02:30N 30°36' W 010°57'612.6
2017-Sep-16 02:00N 30°41' W 010°54'612.6
2017-Sep-16 01:30N 30°46' W 010°50'612.8
2017-Sep-16 01:00N 30°52' W 010°46'612.9
2017-Sep-16 00:30N 30°57' W 010°42'612.5
2017-Sep-16 00:00N 31°03' W 010°38'612.5
2017-Sep-15 23:30N 31°08' W 010°35'612.9
2017-Sep-15 23:00N 31°14' W 010°31'712.9
2017-Sep-15 22:30N 31°20' W 010°27'712.8
2017-Sep-15 21:58N 31°26' W 010°23'612.8
2017-Sep-15 21:30N 31°31' W 010°20'612.6
2017-Sep-15 21:00N 31°36' W 010°16'712.7
2017-Sep-15 20:28N 31°42' W 010°12'612.4
2017-Sep-15 20:00N 31°47' W 010°09'912.5
2017-Sep-15 19:19N 31°54' W 010°04'513.2
2017-Sep-15 18:55N 31°59' W 010°01'3913.1
2017-Sep-15 15:56N 32°32' W 009°36'612.8
2017-Sep-15 15:29N 32°36' W 009°32'14912.7
2017-Sep-15 03:43N 34°27' W 007°33'2312.1
2017-Sep-15 01:51N 34°44' W 007°14'411.8
2017-Sep-15 01:30N 34°47' W 007°10'712.3
2017-Sep-15 00:56N 34°52' W 007°04'613.1
2017-Sep-15 00:28N 34°56' W 006°59'712.8
2017-Sep-14 23:58N 35°01' W 006°53'712.8
2017-Sep-14 23:27N 35°05' W 006°48'713.0
2017-Sep-14 22:55N 35°11' W 006°43'612.9
2017-Sep-14 22:27N 35°15' W 006°38'613.1
2017-Sep-14 21:59N 35°19' W 006°32'1213.2
2017-Sep-14 21:03N 35°28' W 006°22'113.0
2017-Sep-14 21:00N 35°29' W 006°21'713.8
2017-Sep-14 20:30N 35°34' W 006°15'3413.4
2017-Sep-14 17:56N 35°57' W 005°44'1710.8
2017-Sep-14 16:23N 36°01' W 005°24'411.1
2017-Sep-14 16:00N 36°05' W 005°23'3 5.1
2017-Sep-14 15:25N 36°08' W 005°22'0 0.0
2017-Sep-14 05:58N 36°09' W 005°22'0 0.1
2017-Sep-14 04:21N 36°08' W 005°22'3 5.5
2017-Sep-14 03:53N 36°06' W 005°22'512.2
2017-Sep-14 03:30N 36°06' W 005°16'12911.4
2017-Sep-13 16:13N 36°23' W 002°37'312.0
2017-Sep-13 15:59N 36°23' W 002°34'611.9
2017-Sep-13 15:30N 36°24' W 002°27'611.8
2017-Sep-13 15:00N 36°25' W 002°20'7612.0
2017-Sep-13 08:41N 36°38' W 000°46'313.0
2017-Sep-13 08:28N 36°39' W 000°43'2312.8
2017-Sep-13 06:39N 36°43' W 000°15'612.4
2017-Sep-13 06:10N 36°45' W 000°07'1212.5
2017-Sep-13 05:12N 36°47' E 000°07'212.6
2017-Sep-13 05:00N 36°47' E 000°11'3712.7
2017-Sep-13 02:03N 36°54' E 000°56'112.2
2017-Sep-13 01:58N 36°55' E 000°58'1912.3
2017-Sep-13 00:22N 36°59' E 001°22'513.0
2017-Sep-13 00:00N 36°59' E 001°28'4112.5
2017-Sep-12 20:41N 37°06' E 002°19'211.8
2017-Sep-12 20:30N 37°06' E 002°21'1412.0
2017-Sep-12 19:18N 37°10' E 002°39'3312.0
2017-Sep-12 16:34N 37°16' E 003°19'111.7
2017-Sep-12 16:29N 37°16' E 003°21'  

Dump ship's entire track history